sensor_id;sensor_type;location;lat;lon;timestamp;temperature;humidity
22635;DHT22;11484;50.858;4.384;2022-09-09T00:01:37;17.40;99.90
22635;DHT22;11484;50.858;4.384;2022-09-09T00:04:16;17.40;99.90
22635;DHT22;11484;50.858;4.384;2022-09-09T00:06:45;17.40;99.90
22635;DHT22;11484;50.858;4.384;2022-09-09T00:09:13;17.40;99.90
22635;DHT22;11484;50.858;4.384;2022-09-09T00:22:46;17.10;99.90
22635;DHT22;11484;50.858;4.384;2022-09-09T00:25:26;17.20;99.90
22635;DHT22;11484;50.858;4.384;2022-09-09T00:27:54;17.20;99.90
22635;DHT22;11484;50.858;4.384;2022-09-09T00:30:26;17.20;99.90
22635;DHT22;11484;50.858;4.384;2022-09-09T00:33:01;17.20;99.90
22635;DHT22;11484;50.858;4.384;2022-09-09T00:35:35;17.20;99.90
22635;DHT22;11484;50.858;4.384;2022-09-09T00:43:56;17.20;99.90
22635;DHT22;11484;50.858;4.384;2022-09-09T00:58:08;17.30;99.90
22635;DHT22;11484;50.858;4.384;2022-09-09T01:03:21;17.30;99.90
22635;DHT22;11484;50.858;4.384;2022-09-09T01:05:59;17.40;99.90
22635;DHT22;11484;50.858;4.384;2022-09-09T01:24:51;17.30;99.90
22635;DHT22;11484;50.858;4.384;2022-09-09T01:27:21;17.30;99.90
22635;DHT22;11484;50.858;4.384;2022-09-09T01:29:48;17.30;99.90
22635;DHT22;11484;50.858;4.384;2022-09-09T01:35:13;17.20;99.90
22635;DHT22;11484;50.858;4.384;2022-09-09T01:37:40;17.20;99.90
22635;DHT22;11484;50.858;4.384;2022-09-09T01:40:06;17.20;99.90
22635;DHT22;11484;50.858;4.384;2022-09-09T01:42:32;17.20;99.90
22635;DHT22;11484;50.858;4.384;2022-09-09T01:44:59;17.20;99.90
22635;DHT22;11484;50.858;4.384;2022-09-09T01:47:26;17.10;99.90
22635;DHT22;11484;50.858;4.384;2022-09-09T01:49:52;17.10;99.90
22635;DHT22;11484;50.858;4.384;2022-09-09T01:52:19;17.10;99.90
22635;DHT22;11484;50.858;4.384;2022-09-09T01:54:45;17.00;99.90
22635;DHT22;11484;50.858;4.384;2022-09-09T01:57:58;17.00;99.90
22635;DHT22;11484;50.858;4.384;2022-09-09T02:00:15;17.00;99.90
22635;DHT22;11484;50.858;4.384;2022-09-09T02:05:45;17.00;99.90
22635;DHT22;11484;50.858;4.384;2022-09-09T02:08:19;16.90;99.90
22635;DHT22;11484;50.858;4.384;2022-09-09T02:11:11;16.90;99.90
22635;DHT22;11484;50.858;4.384;2022-09-09T02:13:38;16.90;99.90
22635;DHT22;11484;50.858;4.384;2022-09-09T02:18:48;16.90;99.90
22635;DHT22;11484;50.858;4.384;2022-09-09T02:21:16;17.00;99.90
22635;DHT22;11484;50.858;4.384;2022-09-09T02:23:43;17.00;99.90
22635;DHT22;11484;50.858;4.384;2022-09-09T02:26:12;17.00;99.90
22635;DHT22;11484;50.858;4.384;2022-09-09T02:28:42;17.00;99.90
22635;DHT22;11484;50.858;4.384;2022-09-09T02:31:08;17.00;99.90
22635;DHT22;11484;50.858;4.384;2022-09-09T02:33:38;17.00;99.90
22635;DHT22;11484;50.858;4.384;2022-09-09T02:36:07;17.00;99.90
22635;DHT22;11484;50.858;4.384;2022-09-09T02:38:39;16.90;99.90
22635;DHT22;11484;50.858;4.384;2022-09-09T02:41:06;16.90;99.90
22635;DHT22;11484;50.858;4.384;2022-09-09T02:43:33;16.90;99.90
22635;DHT22;11484;50.858;4.384;2022-09-09T02:56:38;16.80;99.90
22635;DHT22;11484;50.858;4.384;2022-09-09T02:59:05;16.90;99.90
22635;DHT22;11484;50.858;4.384;2022-09-09T03:01:30;16.90;99.90
22635;DHT22;11484;50.858;4.384;2022-09-09T03:03:57;16.90;99.90
22635;DHT22;11484;50.858;4.384;2022-09-09T03:06:22;16.90;99.90
22635;DHT22;11484;50.858;4.384;2022-09-09T03:08:49;16.90;99.90
22635;DHT22;11484;50.858;4.384;2022-09-09T03:11:16;16.90;99.90
22635;DHT22;11484;50.858;4.384;2022-09-09T03:13:42;16.90;99.90
22635;DHT22;11484;50.858;4.384;2022-09-09T03:16:07;16.90;99.90
22635;DHT22;11484;50.858;4.384;2022-09-09T03:18:33;16.90;99.90
22635;DHT22;11484;50.858;4.384;2022-09-09T03:21:00;16.80;99.90
22635;DHT22;11484;50.858;4.384;2022-09-09T03:23:26;16.80;99.90
22635;DHT22;11484;50.858;4.384;2022-09-09T03:25:54;16.80;99.90
22635;DHT22;11484;50.858;4.384;2022-09-09T03:28:22;16.80;99.90
22635;DHT22;11484;50.858;4.384;2022-09-09T03:30:49;16.80;99.90
22635;DHT22;11484;50.858;4.384;2022-09-09T03:33:15;16.80;99.90
22635;DHT22;11484;50.858;4.384;2022-09-09T03:35:45;16.80;99.90
22635;DHT22;11484;50.858;4.384;2022-09-09T03:38:13;16.80;99.90
22635;DHT22;11484;50.858;4.384;2022-09-09T03:40:38;16.80;99.90
22635;DHT22;11484;50.858;4.384;2022-09-09T03:43:04;16.80;99.90
22635;DHT22;11484;50.858;4.384;2022-09-09T03:45:30;16.80;99.90
22635;DHT22;11484;50.858;4.384;2022-09-09T03:47:56;16.80;99.90
22635;DHT22;11484;50.858;4.384;2022-09-09T03:50:22;16.80;99.90
22635;DHT22;11484;50.858;4.384;2022-09-09T03:52:49;16.80;99.90
22635;DHT22;11484;50.858;4.384;2022-09-09T03:55:14;16.80;99.90
22635;DHT22;11484;50.858;4.384;2022-09-09T03:57:40;16.70;99.90
22635;DHT22;11484;50.858;4.384;2022-09-09T04:00:07;16.60;99.90
22635;DHT22;11484;50.858;4.384;2022-09-09T04:02:33;16.60;99.90
22635;DHT22;11484;50.858;4.384;2022-09-09T04:04:59;16.60;99.90
22635;DHT22;11484;50.858;4.384;2022-09-09T04:07:25;16.60;99.90
22635;DHT22;11484;50.858;4.384;2022-09-09T04:09:52;16.70;99.90
22635;DHT22;11484;50.858;4.384;2022-09-09T04:12:19;16.80;99.90
22635;DHT22;11484;50.858;4.384;2022-09-09T04:14:46;16.80;99.90
22635;DHT22;11484;50.858;4.384;2022-09-09T04:17:12;16.80;99.90
22635;DHT22;11484;50.858;4.384;2022-09-09T04:19:37;16.80;99.90
22635;DHT22;11484;50.858;4.384;2022-09-09T04:22:03;16.80;99.90
22635;DHT22;11484;50.858;4.384;2022-09-09T04:24:29;16.80;99.90
22635;DHT22;11484;50.858;4.384;2022-09-09T04:26:55;16.70;99.90
22635;DHT22;11484;50.858;4.384;2022-09-09T04:29:20;16.70;99.90
22635;DHT22;11484;50.858;4.384;2022-09-09T04:31:46;16.70;99.90
22635;DHT22;11484;50.858;4.384;2022-09-09T04:34:12;16.70;99.90
22635;DHT22;11484;50.858;4.384;2022-09-09T04:36:38;16.70;99.90
22635;DHT22;11484;50.858;4.384;2022-09-09T04:39:05;16.70;99.90
22635;DHT22;11484;50.858;4.384;2022-09-09T04:41:31;16.70;99.90
22635;DHT22;11484;50.858;4.384;2022-09-09T04:43:57;16.70;99.90
22635;DHT22;11484;50.858;4.384;2022-09-09T04:46:23;16.70;99.90
22635;DHT22;11484;50.858;4.384;2022-09-09T04:48:49;16.70;99.90
22635;DHT22;11484;50.858;4.384;2022-09-09T04:51:16;16.60;99.90
22635;DHT22;11484;50.858;4.384;2022-09-09T04:53:41;16.60;99.90
22635;DHT22;11484;50.858;4.384;2022-09-09T04:56:12;16.70;99.90
22635;DHT22;11484;50.858;4.384;2022-09-09T04:58:39;16.60;99.90
22635;DHT22;11484;50.858;4.384;2022-09-09T05:01:18;16.60;99.90
22635;DHT22;11484;50.858;4.384;2022-09-09T05:03:44;16.70;99.90
22635;DHT22;11484;50.858;4.384;2022-09-09T05:06:16;16.60;99.90
22635;DHT22;11484;50.858;4.384;2022-09-09T05:08:43;16.60;99.90
22635;DHT22;11484;50.858;4.384;2022-09-09T05:11:23;16.60;99.90
22635;DHT22;11484;50.858;4.384;2022-09-09T05:13:51;16.50;99.90
22635;DHT22;11484;50.858;4.384;2022-09-09T05:16:18;16.50;99.90
22635;DHT22;11484;50.858;4.384;2022-09-09T05:18:44;16.50;99.90
22635;DHT22;11484;50.858;4.384;2022-09-09T05:21:11;16.60;99.90
22635;DHT22;11484;50.858;4.384;2022-09-09T05:23:37;16.60;99.90
22635;DHT22;11484;50.858;4.384;2022-09-09T05:26:04;16.60;99.90
22635;DHT22;11484;50.858;4.384;2022-09-09T05:28:30;16.60;99.90
22635;DHT22;11484;50.858;4.384;2022-09-09T05:31:03;16.70;99.90
22635;DHT22;11484;50.858;4.384;2022-09-09T05:33:31;16.80;99.90
22635;DHT22;11484;50.858;4.384;2022-09-09T05:36:05;16.80;99.90
22635;DHT22;11484;50.858;4.384;2022-09-09T05:38:32;16.80;99.90
22635;DHT22;11484;50.858;4.384;2022-09-09T05:40:59;16.80;99.90
22635;DHT22;11484;50.858;4.384;2022-09-09T05:43:25;16.80;99.90
22635;DHT22;11484;50.858;4.384;2022-09-09T05:46:06;16.80;99.90
22635;DHT22;11484;50.858;4.384;2022-09-09T05:48:43;16.90;99.90
22635;DHT22;11484;50.858;4.384;2022-09-09T05:51:11;17.00;99.90
22635;DHT22;11484;50.858;4.384;2022-09-09T05:53:38;17.00;99.90
22635;DHT22;11484;50.858;4.384;2022-09-09T05:56:12;17.00;99.90
22635;DHT22;11484;50.858;4.384;2022-09-09T05:58:39;17.10;99.90
22635;DHT22;11484;50.858;4.384;2022-09-09T06:01:14;17.10;99.90
22635;DHT22;11484;50.858;4.384;2022-09-09T06:03:41;17.10;99.90
22635;DHT22;11484;50.858;4.384;2022-09-09T06:06:10;17.20;99.90
22635;DHT22;11484;50.858;4.384;2022-09-09T06:08:39;17.20;99.90
22635;DHT22;11484;50.858;4.384;2022-09-09T06:11:13;17.30;99.90
22635;DHT22;11484;50.858;4.384;2022-09-09T06:13:39;17.30;99.90
22635;DHT22;11484;50.858;4.384;2022-09-09T06:16:09;17.30;99.90
22635;DHT22;11484;50.858;4.384;2022-09-09T06:18:37;17.40;99.90
22635;DHT22;11484;50.858;4.384;2022-09-09T06:21:05;17.40;99.90
22635;DHT22;11484;50.858;4.384;2022-09-09T06:23:32;17.50;99.90
22635;DHT22;11484;50.858;4.384;2022-09-09T06:26:16;17.60;99.90
22635;DHT22;11484;50.858;4.384;2022-09-09T06:28:43;17.60;99.90
22635;DHT22;11484;50.858;4.384;2022-09-09T06:31:12;17.70;99.90
22635;DHT22;11484;50.858;4.384;2022-09-09T06:33:40;17.70;99.90
22635;DHT22;11484;50.858;4.384;2022-09-09T06:36:18;17.80;99.90
22635;DHT22;11484;50.858;4.384;2022-09-09T06:38:45;17.70;99.90
22635;DHT22;11484;50.858;4.384;2022-09-09T06:41:12;17.80;99.90
22635;DHT22;11484;50.858;4.384;2022-09-09T06:43:39;17.80;99.90
22635;DHT22;11484;50.858;4.384;2022-09-09T06:48:33;17.90;99.90
22635;DHT22;11484;50.858;4.384;2022-09-09T06:51:08;17.90;99.90
22635;DHT22;11484;50.858;4.384;2022-09-09T06:53:35;17.90;99.90
22635;DHT22;11484;50.858;4.384;2022-09-09T06:58:37;17.90;99.90
22635;DHT22;11484;50.858;4.384;2022-09-09T07:01:09;18.00;99.90
22635;DHT22;11484;50.858;4.384;2022-09-09T07:03:35;18.10;99.90
22635;DHT22;11484;50.858;4.384;2022-09-09T07:06:01;18.10;99.90
22635;DHT22;11484;50.858;4.384;2022-09-09T07:08:27;18.10;99.90
22635;DHT22;11484;50.858;4.384;2022-09-09T07:10:54;18.10;99.90
22635;DHT22;11484;50.858;4.384;2022-09-09T07:13:24;18.10;99.90
22635;DHT22;11484;50.858;4.384;2022-09-09T07:15:51;18.10;99.90
22635;DHT22;11484;50.858;4.384;2022-09-09T07:18:17;18.00;99.90
22635;DHT22;11484;50.858;4.384;2022-09-09T07:20:43;18.10;99.90
22635;DHT22;11484;50.858;4.384;2022-09-09T07:23:17;18.20;99.90
22635;DHT22;11484;50.858;4.384;2022-09-09T07:25:46;18.20;99.90
22635;DHT22;11484;50.858;4.384;2022-09-09T07:28:13;18.20;99.90
22635;DHT22;11484;50.858;4.384;2022-09-09T07:30:39;18.20;99.90
22635;DHT22;11484;50.858;4.384;2022-09-09T07:33:06;18.20;99.90
22635;DHT22;11484;50.858;4.384;2022-09-09T07:35:32;18.10;99.90
22635;DHT22;11484;50.858;4.384;2022-09-09T07:38:00;18.10;99.90
22635;DHT22;11484;50.858;4.384;2022-09-09T07:40:26;18.10;99.90
22635;DHT22;11484;50.858;4.384;2022-09-09T07:42:52;18.00;99.90
22635;DHT22;11484;50.858;4.384;2022-09-09T07:45:18;17.90;99.90
22635;DHT22;11484;50.858;4.384;2022-09-09T07:47:44;17.90;99.90
22635;DHT22;11484;50.858;4.384;2022-09-09T07:50:10;18.00;99.90
22635;DHT22;11484;50.858;4.384;2022-09-09T07:52:37;18.00;99.90
22635;DHT22;11484;50.858;4.384;2022-09-09T07:55:03;18.10;99.90
22635;DHT22;11484;50.858;4.384;2022-09-09T07:57:30;18.20;99.90
22635;DHT22;11484;50.858;4.384;2022-09-09T07:59:56;18.20;99.90
22635;DHT22;11484;50.858;4.384;2022-09-09T08:02:23;18.30;99.90
22635;DHT22;11484;50.858;4.384;2022-09-09T08:04:50;18.30;99.90
22635;DHT22;11484;50.858;4.384;2022-09-09T08:07:17;18.40;99.90
22635;DHT22;11484;50.858;4.384;2022-09-09T08:09:42;18.50;99.90
22635;DHT22;11484;50.858;4.384;2022-09-09T08:12:09;18.70;99.90
22635;DHT22;11484;50.858;4.384;2022-09-09T08:14:38;18.90;99.90
22635;DHT22;11484;50.858;4.384;2022-09-09T08:17:04;19.30;99.90
22635;DHT22;11484;50.858;4.384;2022-09-09T08:19:30;19.60;99.90
22635;DHT22;11484;50.858;4.384;2022-09-09T08:21:56;19.60;99.90
22635;DHT22;11484;50.858;4.384;2022-09-09T08:24:22;19.70;99.90
22635;DHT22;11484;50.858;4.384;2022-09-09T08:26:48;19.60;99.90
22635;DHT22;11484;50.858;4.384;2022-09-09T08:29:14;19.50;99.90
22635;DHT22;11484;50.858;4.384;2022-09-09T08:31:48;19.30;99.90
22635;DHT22;11484;50.858;4.384;2022-09-09T08:34:15;19.30;99.90
22635;DHT22;11484;50.858;4.384;2022-09-09T08:36:43;19.40;99.90
22635;DHT22;11484;50.858;4.384;2022-09-09T08:39:10;19.30;99.90
22635;DHT22;11484;50.858;4.384;2022-09-09T08:58:12;18.60;99.90
22635;DHT22;11484;50.858;4.384;2022-09-09T09:01:00;18.60;99.90
22635;DHT22;11484;50.858;4.384;2022-09-09T09:09:22;18.70;99.90
22635;DHT22;11484;50.858;4.384;2022-09-09T09:11:59;18.60;99.90
22635;DHT22;11484;50.858;4.384;2022-09-09T09:14:33;18.70;99.90
22635;DHT22;11484;50.858;4.384;2022-09-09T09:17:10;18.60;99.90
22635;DHT22;11484;50.858;4.384;2022-09-09T09:19:39;18.60;99.90
22635;DHT22;11484;50.858;4.384;2022-09-09T09:22:06;18.40;99.90
22635;DHT22;11484;50.858;4.384;2022-09-09T09:25:15;18.40;99.90
22635;DHT22;11484;50.858;4.384;2022-09-09T09:30:34;18.20;99.90
22635;DHT22;11484;50.858;4.384;2022-09-09T09:35:39;18.20;99.90
22635;DHT22;11484;50.858;4.384;2022-09-09T09:38:19;18.10;99.90
22635;DHT22;11484;50.858;4.384;2022-09-09T09:40:58;17.90;99.90
22635;DHT22;11484;50.858;4.384;2022-09-09T09:43:29;17.80;99.90
22635;DHT22;11484;50.858;4.384;2022-09-09T09:45:56;17.70;99.90
22635;DHT22;11484;50.858;4.384;2022-09-09T09:48:23;17.70;99.90
22635;DHT22;11484;50.858;4.384;2022-09-09T09:51:02;17.70;99.90
22635;DHT22;11484;50.858;4.384;2022-09-09T09:53:31;17.80;99.90
22635;DHT22;11484;50.858;4.384;2022-09-09T09:56:08;17.90;99.90
22635;DHT22;11484;50.858;4.384;2022-09-09T10:01:28;18.10;99.90
22635;DHT22;11484;50.858;4.384;2022-09-09T10:04:22;18.30;99.90
22635;DHT22;11484;50.858;4.384;2022-09-09T10:06:49;18.40;99.90
22635;DHT22;11484;50.858;4.384;2022-09-09T10:09:25;18.40;99.90
22635;DHT22;11484;50.858;4.384;2022-09-09T10:12:03;18.30;99.90
22635;DHT22;11484;50.858;4.384;2022-09-09T10:14:38;18.40;99.90
22635;DHT22;11484;50.858;4.384;2022-09-09T10:23:18;18.40;99.90
22635;DHT22;11484;50.858;4.384;2022-09-09T10:26:03;18.40;99.90
22635;DHT22;11484;50.858;4.384;2022-09-09T10:34:14;18.80;99.90
22635;DHT22;11484;50.858;4.384;2022-09-09T10:36:50;18.90;99.90
22635;DHT22;11484;50.858;4.384;2022-09-09T10:39:33;19.10;99.90
22635;DHT22;11484;50.858;4.384;2022-09-09T10:42:06;19.30;99.90
22635;DHT22;11484;50.858;4.384;2022-09-09T10:50:46;20.00;99.90
22635;DHT22;11484;50.858;4.384;2022-09-09T10:56:12;20.40;99.90
22635;DHT22;11484;50.858;4.384;2022-09-09T10:58:49;20.50;99.90
22635;DHT22;11484;50.858;4.384;2022-09-09T11:01:25;20.40;99.90
22635;DHT22;11484;50.858;4.384;2022-09-09T11:03:56;20.40;99.90
22635;DHT22;11484;50.858;4.384;2022-09-09T11:06:32;20.50;99.90
22635;DHT22;11484;50.858;4.384;2022-09-09T11:09:02;20.70;99.90
22635;DHT22;11484;50.858;4.384;2022-09-09T11:12:07;20.60;99.90
22635;DHT22;11484;50.858;4.384;2022-09-09T11:14:55;20.70;99.90
22635;DHT22;11484;50.858;4.384;2022-09-09T11:17:36;20.50;99.90
22635;DHT22;11484;50.858;4.384;2022-09-09T11:20:05;20.50;99.90
22635;DHT22;11484;50.858;4.384;2022-09-09T11:22:44;20.20;99.90
22635;DHT22;11484;50.858;4.384;2022-09-09T11:25:18;20.20;99.90
22635;DHT22;11484;50.858;4.384;2022-09-09T11:33:34;20.70;99.90
22635;DHT22;11484;50.858;4.384;2022-09-09T11:38:53;20.90;99.90
22635;DHT22;11484;50.858;4.384;2022-09-09T11:41:22;21.00;99.90
22635;DHT22;11484;50.858;4.384;2022-09-09T11:43:50;20.90;99.90
22635;DHT22;11484;50.858;4.384;2022-09-09T11:46:31;20.90;99.90
22635;DHT22;11484;50.858;4.384;2022-09-09T11:49:04;20.70;99.90
22635;DHT22;11484;50.858;4.384;2022-09-09T11:51:32;20.70;99.90
22635;DHT22;11484;50.858;4.384;2022-09-09T11:54:25;20.70;99.90
22635;DHT22;11484;50.858;4.384;2022-09-09T11:56:48;20.70;99.90
22635;DHT22;11484;50.858;4.384;2022-09-09T11:59:29;20.60;99.90
22635;DHT22;11484;50.858;4.384;2022-09-09T12:02:00;20.50;99.90
22635;DHT22;11484;50.858;4.384;2022-09-09T12:04:28;20.50;99.90
22635;DHT22;11484;50.858;4.384;2022-09-09T12:07:02;20.60;99.90
22635;DHT22;11484;50.858;4.384;2022-09-09T12:09:50;20.50;99.90
22635;DHT22;11484;50.858;4.384;2022-09-09T12:12:34;20.60;99.90
22635;DHT22;11484;50.858;4.384;2022-09-09T12:17:48;20.60;99.90
22635;DHT22;11484;50.858;4.384;2022-09-09T12:20:22;20.70;99.90
22635;DHT22;11484;50.858;4.384;2022-09-09T12:28:33;20.80;99.90
22635;DHT22;11484;50.858;4.384;2022-09-09T12:31:51;20.70;99.90
22635;DHT22;11484;50.858;4.384;2022-09-09T12:33:54;20.70;99.90
22635;DHT22;11484;50.858;4.384;2022-09-09T12:36:27;20.80;99.90
22635;DHT22;11484;50.858;4.384;2022-09-09T12:38:55;20.90;99.90
22635;DHT22;11484;50.858;4.384;2022-09-09T12:41:26;21.10;99.90
22635;DHT22;11484;50.858;4.384;2022-09-09T12:44:04;21.10;99.90
22635;DHT22;11484;50.858;4.384;2022-09-09T12:46:41;21.20;99.90
22635;DHT22;11484;50.858;4.384;2022-09-09T12:51:52;21.50;99.90
22635;DHT22;11484;50.858;4.384;2022-09-09T12:54:19;21.50;99.90
22635;DHT22;11484;50.858;4.384;2022-09-09T12:56:46;21.60;99.90
22635;DHT22;11484;50.858;4.384;2022-09-09T12:59:34;21.50;99.90
22635;DHT22;11484;50.858;4.384;2022-09-09T13:02:01;21.60;99.90
22635;DHT22;11484;50.858;4.384;2022-09-09T13:04:26;21.60;99.90
22635;DHT22;11484;50.858;4.384;2022-09-09T13:06:52;21.60;99.90
22635;DHT22;11484;50.858;4.384;2022-09-09T13:09:18;21.50;99.90
22635;DHT22;11484;50.858;4.384;2022-09-09T13:11:50;21.50;99.90
22635;DHT22;11484;50.858;4.384;2022-09-09T13:14:28;21.60;99.90
22635;DHT22;11484;50.858;4.384;2022-09-09T13:16:59;21.50;99.90
22635;DHT22;11484;50.858;4.384;2022-09-09T13:19:26;21.40;99.90
22635;DHT22;11484;50.858;4.384;2022-09-09T13:21:54;21.20;99.90
22635;DHT22;11484;50.858;4.384;2022-09-09T13:24:34;21.20;99.90
22635;DHT22;11484;50.858;4.384;2022-09-09T13:27:01;21.30;99.90
22635;DHT22;11484;50.858;4.384;2022-09-09T13:29:27;21.30;99.90
22635;DHT22;11484;50.858;4.384;2022-09-09T13:32:02;21.30;99.90
22635;DHT22;11484;50.858;4.384;2022-09-09T13:34:31;21.20;99.90
22635;DHT22;11484;50.858;4.384;2022-09-09T13:37:00;21.30;99.90
22635;DHT22;11484;50.858;4.384;2022-09-09T13:39:27;21.40;99.90
22635;DHT22;11484;50.858;4.384;2022-09-09T13:41:53;21.40;99.90
22635;DHT22;11484;50.858;4.384;2022-09-09T13:44:36;21.40;99.90
22635;DHT22;11484;50.858;4.384;2022-09-09T13:47:22;21.50;99.90
22635;DHT22;11484;50.858;4.384;2022-09-09T13:49:52;21.70;99.90
22635;DHT22;11484;50.858;4.384;2022-09-09T13:52:18;21.80;99.90
22635;DHT22;11484;50.858;4.384;2022-09-09T13:54:49;21.80;99.90
22635;DHT22;11484;50.858;4.384;2022-09-09T13:57:20;21.90;99.90
22635;DHT22;11484;50.858;4.384;2022-09-09T13:59:46;22.00;99.90
22635;DHT22;11484;50.858;4.384;2022-09-09T14:02:13;22.00;99.90
22635;DHT22;11484;50.858;4.384;2022-09-09T14:04:39;22.00;99.90
22635;DHT22;11484;50.858;4.384;2022-09-09T14:07:19;22.20;99.90
22635;DHT22;11484;50.858;4.384;2022-09-09T14:09:48;22.20;99.90
22635;DHT22;11484;50.858;4.384;2022-09-09T14:12:15;22.20;99.90
22635;DHT22;11484;50.858;4.384;2022-09-09T14:14:42;22.10;99.90
22635;DHT22;11484;50.858;4.384;2022-09-09T14:17:09;22.00;99.90
22635;DHT22;11484;50.858;4.384;2022-09-09T14:19:37;22.00;99.90
22635;DHT22;11484;50.858;4.384;2022-09-09T14:22:03;21.80;99.90
22635;DHT22;11484;50.858;4.384;2022-09-09T14:24:29;21.80;99.90
22635;DHT22;11484;50.858;4.384;2022-09-09T14:26:55;21.80;99.90
22635;DHT22;11484;50.858;4.384;2022-09-09T14:29:20;21.70;99.90
22635;DHT22;11484;50.858;4.384;2022-09-09T14:31:46;21.70;99.90
22635;DHT22;11484;50.858;4.384;2022-09-09T14:34:12;21.50;99.90
22635;DHT22;11484;50.858;4.384;2022-09-09T14:36:40;21.60;99.90
22635;DHT22;11484;50.858;4.384;2022-09-09T14:39:07;21.70;99.90
22635;DHT22;11484;50.858;4.384;2022-09-09T14:41:33;21.90;99.90
22635;DHT22;11484;50.858;4.384;2022-09-09T14:44:00;21.80;99.90
22635;DHT22;11484;50.858;4.384;2022-09-09T14:46:26;21.90;99.90
22635;DHT22;11484;50.858;4.384;2022-09-09T14:48:52;21.80;99.90
22635;DHT22;11484;50.858;4.384;2022-09-09T14:51:27;21.80;99.90
22635;DHT22;11484;50.858;4.384;2022-09-09T14:53:58;21.80;99.90
22635;DHT22;11484;50.858;4.384;2022-09-09T14:56:27;21.90;99.90
22635;DHT22;11484;50.858;4.384;2022-09-09T14:58:54;22.00;99.90
22635;DHT22;11484;50.858;4.384;2022-09-09T15:01:21;22.10;99.90
22635;DHT22;11484;50.858;4.384;2022-09-09T15:03:59;22.10;99.90
22635;DHT22;11484;50.858;4.384;2022-09-09T15:06:27;22.00;99.90
22635;DHT22;11484;50.858;4.384;2022-09-09T15:08:54;22.00;99.90
22635;DHT22;11484;50.858;4.384;2022-09-09T15:11:25;21.90;99.90
22635;DHT22;11484;50.858;4.384;2022-09-09T15:13:52;21.80;99.90
22635;DHT22;11484;50.858;4.384;2022-09-09T15:16:19;21.80;99.90
22635;DHT22;11484;50.858;4.384;2022-09-09T15:18:46;21.90;99.90
22635;DHT22;11484;50.858;4.384;2022-09-09T15:21:14;21.80;99.90
22635;DHT22;11484;50.858;4.384;2022-09-09T15:23:41;21.80;99.90
22635;DHT22;11484;50.858;4.384;2022-09-09T15:26:07;21.70;99.90
22635;DHT22;11484;50.858;4.384;2022-09-09T15:28:35;21.70;99.90
22635;DHT22;11484;50.858;4.384;2022-09-09T15:31:11;21.70;99.90
22635;DHT22;11484;50.858;4.384;2022-09-09T15:33:40;21.70;99.90
22635;DHT22;11484;50.858;4.384;2022-09-09T15:36:23;21.60;99.90
22635;DHT22;11484;50.858;4.384;2022-09-09T15:38:51;21.60;99.90
22635;DHT22;11484;50.858;4.384;2022-09-09T15:41:18;21.60;99.90
22635;DHT22;11484;50.858;4.384;2022-09-09T15:43:54;21.40;99.90
22635;DHT22;11484;50.858;4.384;2022-09-09T15:51:37;21.30;99.90
22635;DHT22;11484;50.858;4.384;2022-09-09T15:54:03;21.30;99.90
22635;DHT22;11484;50.858;4.384;2022-09-09T15:56:30;21.30;99.90
22635;DHT22;11484;50.858;4.384;2022-09-09T15:58:57;21.40;99.90
22635;DHT22;11484;50.858;4.384;2022-09-09T16:01:25;21.50;99.90
22635;DHT22;11484;50.858;4.384;2022-09-09T16:03:51;21.60;99.90
22635;DHT22;11484;50.858;4.384;2022-09-09T16:06:19;21.60;99.90
22635;DHT22;11484;50.858;4.384;2022-09-09T16:08:47;21.70;99.90
22635;DHT22;11484;50.858;4.384;2022-09-09T16:11:33;21.70;99.90
22635;DHT22;11484;50.858;4.384;2022-09-09T16:14:00;21.80;99.90
22635;DHT22;11484;50.858;4.384;2022-09-09T16:16:28;21.80;99.90
22635;DHT22;11484;50.858;4.384;2022-09-09T16:18:56;21.80;99.90
22635;DHT22;11484;50.858;4.384;2022-09-09T16:21:34;21.70;99.90
22635;DHT22;11484;50.858;4.384;2022-09-09T16:24:02;21.70;99.90
22635;DHT22;11484;50.858;4.384;2022-09-09T16:26:30;21.70;99.90
22635;DHT22;11484;50.858;4.384;2022-09-09T16:28:56;21.60;99.90
22635;DHT22;11484;50.858;4.384;2022-09-09T16:31:27;21.60;99.90
22635;DHT22;11484;50.858;4.384;2022-09-09T16:33:53;21.40;99.90
22635;DHT22;11484;50.858;4.384;2022-09-09T16:36:22;21.20;99.90
22635;DHT22;11484;50.858;4.384;2022-09-09T16:38:51;21.10;99.90
22635;DHT22;11484;50.858;4.384;2022-09-09T16:41:17;21.00;99.90
22635;DHT22;11484;50.858;4.384;2022-09-09T16:43:43;20.90;99.90
22635;DHT22;11484;50.858;4.384;2022-09-09T16:46:17;20.90;99.90
22635;DHT22;11484;50.858;4.384;2022-09-09T16:48:44;20.90;99.90
22635;DHT22;11484;50.858;4.384;2022-09-09T16:51:22;20.90;99.90
22635;DHT22;11484;50.858;4.384;2022-09-09T16:53:49;21.10;99.90
22635;DHT22;11484;50.858;4.384;2022-09-09T16:56:21;21.00;99.90
22635;DHT22;11484;50.858;4.384;2022-09-09T16:58:52;21.10;99.90
22635;DHT22;11484;50.858;4.384;2022-09-09T17:01:19;21.20;99.90
22635;DHT22;11484;50.858;4.384;2022-09-09T17:03:45;21.30;99.90
22635;DHT22;11484;50.858;4.384;2022-09-09T17:06:12;21.30;99.90
22635;DHT22;11484;50.858;4.384;2022-09-09T17:08:39;21.20;99.90
22635;DHT22;11484;50.858;4.384;2022-09-09T17:11:25;21.20;99.90
22635;DHT22;11484;50.858;4.384;2022-09-09T17:13:54;21.20;99.90
22635;DHT22;11484;50.858;4.384;2022-09-09T17:16:20;21.10;99.90
22635;DHT22;11484;50.858;4.384;2022-09-09T17:18:48;21.20;99.90
22635;DHT22;11484;50.858;4.384;2022-09-09T17:21:16;21.20;99.90
22635;DHT22;11484;50.858;4.384;2022-09-09T17:23:44;21.20;99.90
22635;DHT22;11484;50.858;4.384;2022-09-09T17:26:12;21.10;99.90
22635;DHT22;11484;50.858;4.384;2022-09-09T17:28:39;20.90;99.90
22635;DHT22;11484;50.858;4.384;2022-09-09T17:31:07;20.70;99.90
22635;DHT22;11484;50.858;4.384;2022-09-09T17:33:34;20.70;99.90
22635;DHT22;11484;50.858;4.384;2022-09-09T17:36:13;20.70;99.90
22635;DHT22;11484;50.858;4.384;2022-09-09T17:38:40;20.50;99.90
22635;DHT22;11484;50.858;4.384;2022-09-09T17:41:14;20.40;99.90
22635;DHT22;11484;50.858;4.384;2022-09-09T17:43:41;20.30;99.90
22635;DHT22;11484;50.858;4.384;2022-09-09T17:46:29;20.20;99.90
22635;DHT22;11484;50.858;4.384;2022-09-09T17:48:58;20.20;99.90
22635;DHT22;11484;50.858;4.384;2022-09-09T17:51:26;20.00;99.90
22635;DHT22;11484;50.858;4.384;2022-09-09T17:54:01;20.00;99.90
22635;DHT22;11484;50.858;4.384;2022-09-09T17:56:29;19.90;99.90
22635;DHT22;11484;50.858;4.384;2022-09-09T17:58:58;19.80;99.90
22635;DHT22;11484;50.858;4.384;2022-09-09T18:01:27;19.70;99.90
22635;DHT22;11484;50.858;4.384;2022-09-09T18:03:54;19.80;99.90
22635;DHT22;11484;50.858;4.384;2022-09-09T18:06:25;19.70;99.90
22635;DHT22;11484;50.858;4.384;2022-09-09T18:09:01;19.50;99.90
22635;DHT22;11484;50.858;4.384;2022-09-09T18:11:32;19.60;99.90
22635;DHT22;11484;50.858;4.384;2022-09-09T18:14:02;19.40;99.90
22635;DHT22;11484;50.858;4.384;2022-09-09T18:16:30;19.50;99.90